Time;durP1;ratioP1;P1;durP2;ratioP2;P2;SDS_P1;SDS_P2;PMS_P1;PMS_P2;Temp;Humidity;BMP_temperature;BMP_pressure;BME280_temperature;BME280_humidity;BME280_pressure;Samples;Min_cycle;Max_cycle;Signal;HPM_P1;HPM_P2
2022/09/26 00:01:14;;;;;;;;;;;;;;;10.71;100.00;100920.22;5016479;28;19913;-42
2022/09/26 00:03:43;;;;;;;;;;;;;;;10.70;100.00;100915.03;5016772;28;19957;-45
2022/09/26 00:06:09;;;;;;;;;;;;;;;10.66;100.00;100908.31;5012263;28;19920;-42
2022/09/26 00:08:34;;;;;;;;;;;;;;;10.64;100.00;100906.66;5003090;28;20125;-42
2022/09/26 00:11:01;;;;;;;;;;;;;;;10.62;100.00;100903.31;5009612;28;20415;-44
2022/09/26 00:13:27;;;;;;;;;;;;;;;10.59;100.00;100900.97;5017303;28;19917;-44
2022/09/26 00:15:53;;;;;;;;;;;;;;;10.57;100.00;100897.63;5012917;28;19920;-43
2022/09/26 00:18:19;;;;;;;;;;;;;;;10.54;100.00;100887.25;5015110;28;20119;-42
2022/09/26 00:20:44;;;;;;;;;;;;;;;10.56;100.00;100887.94;5017470;28;20015;-44
2022/09/26 00:23:09;;;;;;;;;;;;;;;10.55;100.00;100880.91;5016382;28;19913;-44
2022/09/26 00:25:35;;;;;;;;;;;;;;;10.57;100.00;100875.41;5017170;28;19913;-45
2022/09/26 00:28:00;;;;;;;;;;;;;;;10.57;100.00;100878.06;5014569;28;19917;-43
2022/09/26 00:30:25;;;;;;;;;;;;;;;10.59;100.00;100870.72;5016716;28;19913;-42
2022/09/26 00:32:50;;;;;;;;;;;;;;;10.61;100.00;100866.09;5015622;28;19913;-41
2022/09/26 00:35:16;;;;;;;;;;;;;;;10.63;100.00;100864.09;5016377;28;19948;-41
2022/09/26 00:37:41;;;;;;;;;;;;;;;10.64;100.00;100860.41;5012960;28;19923;-41
2022/09/26 00:40:07;;;;;;;;;;;;;;;10.64;100.00;100860.41;5016380;28;20044;-44
2022/09/26 00:42:32;;;;;;;;;;;;;;;10.64;100.00;100855.06;5015340;28;19917;-43
2022/09/26 00:44:57;;;;;;;;;;;;;;;10.59;100.00;100836.88;5009102;28;20008;-43
2022/09/26 00:47:34;;;;;;;;;;;;;;;10.59;100.00;100833.34;5012582;28;19917;-44
2022/09/26 00:50:06;;;;;;;;;;;;;;;10.56;100.00;100831.03;5016912;28;20057;-41
2022/09/26 00:52:40;;;;;;;;;;;;;;;10.58;100.00;100845.03;5016564;28;19940;-45
2022/09/26 00:55:07;;;;;;;;;;;;;;;10.57;100.00;100827.34;5016122;28;19956;-43
2022/09/26 00:57:36;;;;;;;;;;;;;;;10.55;100.00;100827.50;5014629;28;19913;-44
2022/09/26 01:00:05;;;;;;;;;;;;;;;10.58;100.00;100818.34;5017309;28;20389;-44
2022/09/26 01:02:31;;;;;;;;;;;;;;;10.55;100.00;100808.78;5015669;28;19917;-44
2022/09/26 01:04:57;;;;;;;;;;;;;;;10.53;100.00;100801.97;5015940;28;20106;-41
2022/09/26 01:07:24;;;;;;;;;;;;;;;10.51;100.00;100798.63;5016300;28;20009;-40
2022/09/26 01:09:50;;;;;;;;;;;;;;;10.49;100.00;100795.25;5016794;28;19948;-45
2022/09/26 01:12:16;;;;;;;;;;;;;;;10.49;100.00;100789.91;5013700;28;19917;-45
2022/09/26 01:14:42;;;;;;;;;;;;;;;10.51;100.00;100787.94;5020291;28;19917;-40
2022/09/26 01:17:08;;;;;;;;;;;;;;;10.51;100.00;100787.94;5019081;28;19944;-44
2022/09/26 01:19:52;;;;;;;;;;;;;;;10.51;100.00;100774.59;5020596;28;19944;-43
2022/09/26 01:22:37;;;;;;;;;;;;;;;10.48;100.00;100773.06;5018931;28;20314;-43
2022/09/26 01:25:15;;;;;;;;;;;;;;;10.49;100.00;100764.06;5020148;28;20066;-42
2022/09/26 01:27:59;;;;;;;;;;;;;;;10.50;100.00;100754.22;5018395;28;19917;-45
2022/09/26 01:30:27;;;;;;;;;;;;;;;10.50;100.00;100752.38;5019260;28;19917;-44
2022/09/26 01:33:11;;;;;;;;;;;;;;;10.51;100.00;100737.22;5017930;28;19924;-47
2022/09/26 01:35:42;;;;;;;;;;;;;;;10.51;100.00;100734.53;5011971;28;19989;-42
2022/09/26 01:38:25;;;;;;;;;;;;;;;10.52;100.00;100728.19;5019982;28;19914;-43
2022/09/26 01:40:53;;;;;;;;;;;;;;;10.52;100.00;100730.84;5018805;28;20421;-46
2022/09/26 01:43:25;;;;;;;;;;;;;;;10.52;100.00;100714.81;5019698;28;19948;-43
2022/09/26 01:45:50;;;;;;;;;;;;;;;10.53;100.00;100712.00;5005927;28;19917;-42
2022/09/26 01:48:18;;;;;;;;;;;;;;;10.55;100.00;100712.66;5017023;28;19924;-42
2022/09/26 01:50:56;;;;;;;;;;;;;;;10.52;100.00;100709.50;5018642;28;19913;-43
2022/09/26 01:53:28;;;;;;;;;;;;;;;10.50;100.00;100692.81;5018674;28;20368;-42
2022/09/26 01:55:57;;;;;;;;;;;;;;;10.48;100.00;100694.81;5015986;28;20004;-42
2022/09/26 01:58:26;;;;;;;;;;;;;;;10.49;100.00;100686.63;5011599;28;19917;-42
2022/09/26 02:00:56;;;;;;;;;;;;;;;10.48;100.00;100684.94;5007872;28;20392;-43
2022/09/26 02:03:26;;;;;;;;;;;;;;;10.50;100.00;100680.28;4998620;28;19955;-41
2022/09/26 02:05:58;;;;;;;;;;;;;;;10.48;100.00;100674.28;4997084;28;21506;-39
2022/09/26 02:08:32;;;;;;;;;;;;;;;10.50;100.00;100668.78;4999742;28;19918;-44
2022/09/26 02:11:02;;;;;;;;;;;;;;;10.52;100.00;100670.28;5015163;28;19947;-41
2022/09/26 02:13:30;;;;;;;;;;;;;;;10.50;100.00;100658.09;4999245;28;20304;-45
2022/09/26 02:15:59;;;;;;;;;;;;;;;10.49;100.00;100662.59;5014496;28;20357;-42
2022/09/26 02:18:30;;;;;;;;;;;;;;;10.51;100.00;100657.09;5018741;28;19917;-42
2022/09/26 02:20:59;;;;;;;;;;;;;;;10.53;100.00;100647.09;5018405;28;20218;-41
2022/09/26 02:23:25;;;;;;;;;;;;;;;10.52;100.00;100648.06;5018766;28;20108;-41
2022/09/26 02:25:50;;;;;;;;;;;;;;;10.52;100.00;100643.59;5011871;28;19923;-45
2022/09/26 02:28:15;;;;;;;;;;;;;;;10.52;100.00;100640.06;5018462;28;19940;-41
2022/09/26 02:30:43;;;;;;;;;;;;;;;10.55;100.00;100631.72;5017494;28;19917;-46
2022/09/26 02:33:08;;;;;;;;;;;;;;;10.60;100.00;100626.72;5017641;28;19939;-44
2022/09/26 02:38:17;;;;;;;;;;;;;;;10.56;100.00;100626.22;5019129;28;20052;-42
2022/09/26 02:40:50;;;;;;;;;;;;;;;10.54;100.00;100622.03;5017707;28;20215;-42
2022/09/26 02:43:25;;;;;;;;;;;;;;;10.56;100.00;100614.72;5017454;28;20265;-47
2022/09/26 02:45:54;;;;;;;;;;;;;;;10.59;100.00;100615.22;5018070;28;20392;-41
2022/09/26 02:48:19;;;;;;;;;;;;;;;10.57;100.00;100608.34;5018602;28;19917;-42
2022/09/26 02:50:47;;;;;;;;;;;;;;;10.59;100.00;100606.34;5017781;28;20487;-41
2022/09/26 02:53:15;;;;;;;;;;;;;;;10.58;100.00;100608.19;5017835;28;19917;-41
2022/09/26 02:55:40;;;;;;;;;;;;;;;10.59;100.00;100599.19;5016714;28;19928;-41
2022/09/26 02:58:14;;;;;;;;;;;;;;;10.57;100.00;100601.19;5017493;28;19917;-41
2022/09/26 03:00:48;;;;;;;;;;;;;;;10.60;100.00;100603.50;5018218;28;19993;-42
2022/09/26 03:03:20;;;;;;;;;;;;;;;10.57;100.00;100597.69;5013564;28;19925;-42
2022/09/26 03:05:47;;;;;;;;;;;;;;;10.57;100.00;100600.34;5017557;28;19966;-41
2022/09/26 03:08:18;;;;;;;;;;;;;;;10.56;100.00;100593.34;5017237;28;19921;-44
2022/09/26 03:10:45;;;;;;;;;;;;;;;10.53;100.00;100580.34;5017162;28;19917;-45
2022/09/26 03:13:12;;;;;;;;;;;;;;;10.50;100.00;100575.31;5017451;28;19951;-44
2022/09/26 03:15:39;;;;;;;;;;;;;;;10.49;100.00;100569.16;5017518;28;20282;-43
2022/09/26 03:18:07;;;;;;;;;;;;;;;10.42;100.00;100571.66;5015531;28;20014;-42
2022/09/26 03:20:32;;;;;;;;;;;;;;;10.41;100.00;100566.47;5017500;28;19921;-41
2022/09/26 03:22:57;;;;;;;;;;;;;;;10.41;100.00;100561.13;5017644;28;20082;-42
2022/09/26 03:25:24;;;;;;;;;;;;;;;10.38;100.00;100553.47;5017523;28;20372;-41
2022/09/26 03:27:50;;;;;;;;;;;;;;;10.36;100.00;100545.63;5016104;28;19921;-41
2022/09/26 03:30:16;;;;;;;;;;;;;;;10.30;100.00;100543.56;5018054;28;19913;-43
2022/09/26 03:32:42;;;;;;;;;;;;;;;10.27;100.00;100534.06;5017069;28;20278;-42
2022/09/26 03:35:08;;;;;;;;;;;;;;;10.30;100.00;100537.41;5030619;28;19921;-44
2022/09/26 03:37:36;;;;;;;;;;;;;;;10.26;100.00;100535.06;5016196;28;19920;-41
2022/09/26 03:40:06;;;;;;;;;;;;;;;10.25;100.00;100527.22;5017850;28;20144;-44
2022/09/26 03:42:32;;;;;;;;;;;;;;;10.26;100.00;100527.06;5016314;28;19999;-42
2022/09/26 03:45:02;;;;;;;;;;;;;;;10.26;100.00;100539.59;5017081;28;19964;-40
2022/09/26 03:47:27;;;;;;;;;;;;;;;10.24;100.00;100512.22;5013501;28;20368;-44
2022/09/26 03:49:53;;;;;;;;;;;;;;;10.26;100.00;100512.88;5016391;28;20023;-42
2022/09/26 03:52:19;;;;;;;;;;;;;;;10.26;100.00;100511.03;5013267;28;19921;-41
2022/09/26 03:54:44;;;;;;;;;;;;;;;10.28;100.00;100510.88;5015024;28;19925;-45
2022/09/26 03:57:12;;;;;;;;;;;;;;;10.21;100.00;100497.38;5011592;28;19923;-41
2022/09/26 03:59:37;;;;;;;;;;;;;;;10.23;100.00;100506.06;5014966;28;20356;-41
2022/09/26 04:02:03;;;;;;;;;;;;;;;10.24;100.00;100496.22;5014387;28;19936;-42
2022/09/26 04:04:28;;;;;;;;;;;;;;;10.23;100.00;100486.53;5014306;28;20415;-41
2022/09/26 04:06:53;;;;;;;;;;;;;;;10.21;100.00;100480.53;5015089;28;20109;-46
2022/09/26 04:09:18;;;;;;;;;;;;;;;10.20;100.00;100476.19;5012382;28;19917;-46
2022/09/26 04:11:44;;;;;;;;;;;;;;;10.19;100.00;100474.53;5015349;28;20890;-41
2022/09/26 04:14:09;;;;;;;;;;;;;;;10.15;100.00;100462.50;5012609;28;19932;-43
2022/09/26 04:16:35;;;;;;;;;;;;;;;10.14;100.00;100452.84;5014561;28;20321;-40
2022/09/26 04:19:01;;;;;;;;;;;;;;;10.17;100.00;100452.53;5014688;28;19913;-43
2022/09/26 04:21:27;;;;;;;;;;;;;;;10.20;100.00;100449.50;5013909;28;20027;-41
2022/09/26 04:23:53;;;;;;;;;;;;;;;10.18;100.00;100446.16;5015832;28;20004;-43
2022/09/26 04:26:18;;;;;;;;;;;;;;;10.16;100.00;100438.31;5011605;28;20295;-41
2022/09/26 04:28:44;;;;;;;;;;;;;;;10.18;100.00;100444.34;5012591;28;19923;-41
2022/09/26 04:31:10;;;;;;;;;;;;;;;10.19;100.00;100431.84;5014479;28;19963;-40
2022/09/26 04:33:38;;;;;;;;;;;;;;;10.13;100.00;100422.66;5015125;28;19928;-40
2022/09/26 04:36:04;;;;;;;;;;;;;;;10.16;100.00;100427.66;5016158;28;20226;-41
2022/09/26 04:38:32;;;;;;;;;;;;;;;10.14;100.00;100431.50;5012097;28;20367;-42
2022/09/26 04:41:30;;;;;;;;;;;;;;;10.13;100.00;100413.81;5011261;28;19917;-46
2022/09/26 04:43:56;;;;;;;;;;;;;;;10.11;100.00;100389.97;5000704;28;20060;-40
2022/09/26 04:46:22;;;;;;;;;;;;;;;10.05;100.00;100375.47;5012514;28;19997;-40
2022/09/26 04:48:52;;;;;;;;;;;;;;;10.05;100.00;100369.31;5016958;28;20285;-43
2022/09/26 04:51:18;;;;;;;;;;;;;;;10.04;100.00;100375.66;5020029;28;19960;-44
2022/09/26 04:53:43;;;;;;;;;;;;;;;10.08;100.00;100371.63;5014997;28;19967;-44
2022/09/26 04:56:10;;;;;;;;;;;;;;;10.04;100.00;100368.47;5014485;28;19921;-43
2022/09/26 04:58:36;;;;;;;;;;;;;;;10.03;100.00;100361.50;5017120;28;20015;-43
2022/09/26 05:01:03;;;;;;;;;;;;;;;10.01;100.00;100354.63;5019085;28;19950;-42
2022/09/26 05:03:28;;;;;;;;;;;;;;;9.98;100.00;100333.63;5018438;28;19947;-40
2022/09/26 05:05:54;;;;;;;;;;;;;;;9.93;100.00;100342.16;5017607;28;20230;-40
2022/09/26 05:08:19;;;;;;;;;;;;;;;9.94;100.00;100335.81;5018345;28;19917;-41
2022/09/26 05:10:50;;;;;;;;;;;;;;;9.91;100.00;100330.81;5013800;28;19913;-43
2022/09/26 05:13:15;;;;;;;;;;;;;;;9.90;100.00;100331.81;5017034;28;20015;-42
2022/09/26 05:15:41;;;;;;;;;;;;;;;9.90;100.00;100329.16;5004764;28;19921;-42
2022/09/26 05:18:07;;;;;;;;;;;;;;;9.91;100.00;100325.47;5019214;28;20241;-41
2022/09/26 05:20:33;;;;;;;;;;;;;;;9.90;100.00;100313.16;5015323;28;19928;-41
2022/09/26 05:22:59;;;;;;;;;;;;;;;9.93;100.00;100323.50;5012776;28;20149;-42
2022/09/26 05:28:09;;;;;;;;;;;;;;;9.94;100.00;100319.81;5017591;28;19927;-44
2022/09/26 05:30:34;;;;;;;;;;;;;;;9.94;100.00;100313.66;5021454;28;19925;-41
2022/09/26 05:32:59;;;;;;;;;;;;;;;9.97;100.00;100313.31;5004924;28;20419;-48
2022/09/26 05:35:24;;;;;;;;;;;;;;;9.98;100.00;100313.16;5013884;28;19972;-42
2022/09/26 05:37:57;;;;;;;;;;;;;;;10.00;100.00;100307.66;5014198;28;19925;-45
2022/09/26 05:43:07;;;;;;;;;;;;;;;10.00;100.00;100308.47;5009648;28;19995;-44
2022/09/26 05:45:32;;;;;;;;;;;;;;;10.00;100.00;100303.13;5006585;28;19917;-42
2022/09/26 05:47:57;;;;;;;;;;;;;;;10.02;100.00;100305.63;5004293;28;20542;-41
2022/09/26 05:50:23;;;;;;;;;;;;;;;10.04;100.00;100299.09;5004863;28;19925;-45
2022/09/26 05:52:49;;;;;;;;;;;;;;;9.99;100.00;100290.78;5016163;28;19924;-41
2022/09/26 05:55:14;;;;;;;;;;;;;;;10.02;100.00;100298.44;5008745;28;20449;-42
2022/09/26 05:57:48;;;;;;;;;;;;;;;10.04;100.00;100280.44;4998212;28;20297;-43
2022/09/26 06:00:14;;;;;;;;;;;;;;;10.01;100.00;100286.13;5004328;28;19920;-42
2022/09/26 06:02:39;;;;;;;;;;;;;;;9.99;100.00;100276.63;5017728;28;20108;-41
2022/09/26 06:05:04;;;;;;;;;;;;;;;10.00;100.00;100267.63;5015466;28;20337;-41
2022/09/26 06:07:29;;;;;;;;;;;;;;;9.98;100.00;100265.13;5000725;28;19922;-41
2022/09/26 06:09:54;;;;;;;;;;;;;;;9.98;100.00;100256.28;5007835;28;20016;-42
2022/09/26 06:12:20;;;;;;;;;;;;;;;9.95;100.00;100249.47;5011062;28;20296;-40
2022/09/26 06:14:46;;;;;;;;;;;;;;;9.97;100.00;100241.28;5016117;28;19917;-42
2022/09/26 06:17:12;;;;;;;;;;;;;;;9.95;100.00;100237.97;5017278;28;19947;-42
2022/09/26 06:19:38;;;;;;;;;;;;;;;9.94;100.00;100226.44;5014002;28;19909;-44
2022/09/26 06:22:04;;;;;;;;;;;;;;;9.95;100.00;100222.78;5000116;28;19921;-43
2022/09/26 06:24:29;;;;;;;;;;;;;;;9.98;100.00;100200.25;5010021;28;20271;-43
2022/09/26 06:26:54;;;;;;;;;;;;;;;10.01;100.00;100198.09;5005805;28;19929;-43
2022/09/26 06:29:19;;;;;;;;;;;;;;;10.05;100.00;100210.06;5005681;28;19925;-40
2022/09/26 06:31:45;;;;;;;;;;;;;;;10.05;100.00;100195.91;4998793;28;20383;-41
2022/09/26 06:34:11;;;;;;;;;;;;;;;10.06;100.00;100186.88;5008275;28;19921;-41
2022/09/26 06:36:38;;;;;;;;;;;;;;;10.07;100.00;100184.03;4998899;28;19928;-40
2022/09/26 06:39:03;;;;;;;;;;;;;;;10.07;100.00;100173.38;5004896;28;19972;-41
2022/09/26 06:41:28;;;;;;;;;;;;;;;10.10;100.00;100174.88;5001279;28;19918;-42
2022/09/26 06:43:54;;;;;;;;;;;;;;;10.08;100.00;100166.19;4998581;28;19948;-41
2022/09/26 06:46:20;;;;;;;;;;;;;;;10.13;100.00;100144.31;4998277;28;20004;-41
2022/09/26 06:48:45;;;;;;;;;;;;;;;10.18;100.00;100152.63;4998768;28;20336;-41
2022/09/26 06:51:12;;;;;;;;;;;;;;;10.21;100.00;100149.63;4997744;28;20422;-43
2022/09/26 06:53:38;;;;;;;;;;;;;;;10.26;100.00;100141.91;4998637;28;20008;-43
2022/09/26 06:56:03;;;;;;;;;;;;;;;10.33;100.00;100142.91;5004713;28;20389;-42
2022/09/26 06:58:29;;;;;;;;;;;;;;;10.37;100.00;100119.34;5016964;28;19996;-42
2022/09/26 07:00:55;;;;;;;;;;;;;;;10.39;100.00;100128.84;4997829;28;20299;-42
2022/09/26 07:03:21;;;;;;;;;;;;;;;10.40;100.00;100117.19;4998483;28;19928;-41
2022/09/26 07:05:46;;;;;;;;;;;;;;;10.42;100.00;100119.66;4998229;28;20000;-43
2022/09/26 07:08:11;;;;;;;;;;;;;;;10.41;100.00;100110.81;5002171;28;20007;-43
2022/09/26 07:10:37;;;;;;;;;;;;;;;10.41;100.00;100105.47;4997627;28;20365;-43
2022/09/26 07:13:04;;;;;;;;;;;;;;;10.49;100.00;100103.75;4997092;28;20465;-43
2022/09/26 07:15:31;;;;;;;;;;;;;;;10.50;100.00;100087.56;4998033;28;19933;-45
2022/09/26 07:18:01;;;;;;;;;;;;;;;10.57;100.00;100085.84;5013386;28;20198;-43
2022/09/26 07:20:26;;;;;;;;;;;;;;;10.60;100.00;100079.31;5007641;28;19995;-44
2022/09/26 07:22:52;;;;;;;;;;;;;;;10.63;100.00;100089.63;5004930;28;20337;-42
2022/09/26 07:25:17;;;;;;;;;;;;;;;10.62;100.00;100087.97;5015058;28;20269;-41
2022/09/26 07:27:42;;;;;;;;;;;;;;;10.61;100.00;100080.97;5014286;28;19924;-43
2022/09/26 07:30:12;;;;;;;;;;;;;;;10.64;100.00;100088.59;5014496;28;19924;-42
2022/09/26 07:32:38;;;;;;;;;;;;;;;10.66;100.00;100083.94;5013309;28;19928;-43
2022/09/26 07:35:03;;;;;;;;;;;;;;;10.67;100.00;100084.75;5016518;28;20308;-43
2022/09/26 07:37:29;;;;;;;;;;;;;;;10.70;100.00;100077.22;5016210;28;19917;-41
2022/09/26 07:39:54;;;;;;;;;;;;;;;10.77;100.00;100082.66;5015623;28;20344;-43
2022/09/26 07:42:20;;;;;;;;;;;;;;;10.80;100.00;100075.09;5007099;28;19940;-43
2022/09/26 07:44:45;;;;;;;;;;;;;;;10.88;100.00;100078.72;5013910;28;19924;-42
2022/09/26 07:50:10;;;;;;;;;;;;;;;10.97;100.00;100065.09;5013883;28;19971;-44
2022/09/26 07:52:36;;;;;;;;;;;;;;;10.99;100.00;100083.63;5015435;28;20289;-42
2022/09/26 07:55:01;;;;;;;;;;;;;;;10.99;100.00;100063.06;5015775;28;19925;-45
2022/09/26 07:57:28;;;;;;;;;;;;;;;11.04;100.00;100065.19;5006774;28;20024;-44
2022/09/26 07:59:53;;;;;;;;;;;;;;;11.09;100.00;100060.13;5014956;28;19968;-41
2022/09/26 08:02:23;;;;;;;;;;;;;;;11.09;100.00;100049.44;5012817;28;20198;-42
2022/09/26 08:04:48;;;;;;;;;;;;;;;11.07;100.00;100045.31;5010311;28;19932;-40
2022/09/26 08:07:14;;;;;;;;;;;;;;;11.10;100.00;100042.25;5010971;28;19917;-46
2022/09/26 08:09:39;;;;;;;;;;;;;;;11.15;100.00;100034.50;5011462;28;19971;-40
2022/09/26 08:12:04;;;;;;;;;;;;;;;11.18;100.00;100040.31;5012679;28;19932;-42
2022/09/26 08:14:29;;;;;;;;;;;;;;;11.23;100.00;100025.56;5009489;28;19925;-42
2022/09/26 08:16:55;;;;;;;;;;;;;;;11.25;100.00;100029.69;5011468;28;20242;-42
2022/09/26 08:19:21;;;;;;;;;;;;;;;11.23;100.00;100018.38;5011329;28;20146;-43
2022/09/26 08:21:47;;;;;;;;;;;;;;;11.21;100.00;100028.41;5008508;28;19917;-45
2022/09/26 08:24:13;;;;;;;;;;;;;;;11.22;100.00;100023.91;5014275;28;19917;-45
2022/09/26 08:26:41;;;;;;;;;;;;;;;11.14;100.00;100020.31;5011539;28;19951;-42
2022/09/26 08:29:11;;;;;;;;;;;;;;;11.14;100.00;100017.63;5015658;28;19940;-43
2022/09/26 08:31:39;;;;;;;;;;;;;;;11.17;100.00;100037.84;5015043;28;20329;-45
2022/09/26 08:34:04;;;;;;;;;;;;;;;11.12;100.00;100021.53;5005724;28;20390;-41
2022/09/26 08:36:31;;;;;;;;;;;;;;;11.20;100.00;100027.59;5008504;28;19921;-42
2022/09/26 08:38:57;;;;;;;;;;;;;;;11.28;100.00;100026.66;5013025;28;19944;-41
2022/09/26 08:41:46;;;;;;;;;;;;;;;11.31;100.00;100025.47;5010400;28;20099;-42
2022/09/26 08:44:24;;;;;;;;;;;;;;;11.32;100.00;100021.75;5016156;28;19955;-43
2022/09/26 08:47:00;;;;;;;;;;;;;;;11.38;100.00;100027.19;5005420;28;20016;-40
2022/09/26 08:50:00;;;;;;;;;;;;;;;11.42;100.00;100019.63;5017784;28;19925;-41
2022/09/26 08:52:35;;;;;;;;;;;;;;;11.46;100.00;100017.44;4998140;28;19918;-45
2022/09/26 08:55:04;;;;;;;;;;;;;;;11.47;100.00;100013.72;5018500;28;20011;-43
2022/09/26 08:57:41;;;;;;;;;;;;;;;11.48;100.00;100010.06;5015899;28;20408;-42
2022/09/26 09:00:14;;;;;;;;;;;;;;;11.45;100.00;100019.25;5016000;28;20368;-43
2022/09/26 09:02:49;;;;;;;;;;;;;;;11.34;100.00;100019.75;5011040;28;19920;-45
2022/09/26 09:05:16;;;;;;;;;;;;;;;11.26;100.00;100009.16;5000163;28;20022;-43
2022/09/26 09:07:41;;;;;;;;;;;;;;;11.25;100.00;99999.47;5001100;28;20382;-42
2022/09/26 09:10:10;;;;;;;;;;;;;;;11.20;100.00;99997.34;5017324;28;20064;-43
2022/09/26 09:12:51;;;;;;;;;;;;;;;11.13;100.00;99994.63;5009676;28;19917;-44
2022/09/26 09:15:25;;;;;;;;;;;;;;;11.06;100.00;99984.84;5011142;28;19921;-43
2022/09/26 09:18:08;;;;;;;;;;;;;;;10.97;100.00;99982.28;5000167;28;20325;-41
2022/09/26 09:20:57;;;;;;;;;;;;;;;10.84;100.00;99979.41;5000704;28;19924;-47
2022/09/26 09:23:41;;;;;;;;;;;;;;;10.76;100.00;99969.66;5008578;28;19921;-44
2022/09/26 09:26:15;;;;;;;;;;;;;;;10.82;100.00;99965.41;5017955;28;19917;-43
2022/09/26 09:28:40;;;;;;;;;;;;;;;10.90;100.00;99970.66;5007349;28;19917;-45
2022/09/26 09:31:09;;;;;;;;;;;;;;;10.97;100.00;99963.56;5018794;28;20005;-45
2022/09/26 09:33:41;;;;;;;;;;;;;;;11.00;100.00;99949.03;5017862;28;19917;-41
2022/09/26 09:36:13;;;;;;;;;;;;;;;11.04;100.00;99947.63;5017768;28;20004;-41
2022/09/26 09:38:39;;;;;;;;;;;;;;;11.08;100.00;99943.56;5019862;28;19921;-44
2022/09/26 09:41:07;;;;;;;;;;;;;;;11.05;100.00;99943.94;5018544;28;20141;-42
2022/09/26 09:43:41;;;;;;;;;;;;;;;10.98;100.00;99930.50;5018749;28;19929;-43
2022/09/26 09:46:17;;;;;;;;;;;;;;;11.02;100.00;99929.09;5014684;28;19944;-43
2022/09/26 09:48:45;;;;;;;;;;;;;;;11.04;100.00;99926.25;5018671;28;19913;-42
2022/09/26 09:51:18;;;;;;;;;;;;;;;11.06;100.00;99923.38;5008945;28;19921;-42
2022/09/26 09:54:15;;;;;;;;;;;;;;;11.08;100.00;99916.81;4999893;28;19913;-44
2022/09/26 09:56:51;;;;;;;;;;;;;;;11.16;100.00;99919.41;4996628;28;20234;-42
2022/09/26 09:59:29;;;;;;;;;;;;;;;11.22;100.00;99914.31;5016244;28;20340;-43
2022/09/26 10:02:07;;;;;;;;;;;;;;;11.28;100.00;99913.56;5003366;28;19917;-43
2022/09/26 10:04:43;;;;;;;;;;;;;;;11.23;100.00;99897.28;5014127;28;19975;-46
2022/09/26 10:07:08;;;;;;;;;;;;;;;11.24;100.00;99906.97;5004942;28;19913;-42
2022/09/26 10:09:40;;;;;;;;;;;;;;;11.23;100.00;99898.09;5017972;28;19917;-42
2022/09/26 10:12:17;;;;;;;;;;;;;;;11.21;100.00;99889.44;5016649;28;19952;-47
2022/09/26 10:14:48;;;;;;;;;;;;;;;11.25;100.00;99888.03;5014977;28;19921;-44
2022/09/26 10:17:16;;;;;;;;;;;;;;;11.28;100.00;99887.66;5013010;28;19963;-43
2022/09/26 10:19:43;;;;;;;;;;;;;;;11.35;100.00;99885.06;5014192;28;20062;-41
2022/09/26 10:22:24;;;;;;;;;;;;;;;11.33;100.00;99881.75;5014958;28;19924;-45
2022/09/26 10:24:51;;;;;;;;;;;;;;;11.27;100.00;99871.81;5017109;28;20388;-41
2022/09/26 10:27:22;;;;;;;;;;;;;;;11.20;100.00;99871.75;5016505;28;19941;-40
2022/09/26 10:29:57;;;;;;;;;;;;;;;11.20;100.00;99867.25;5013208;28;19979;-42
2022/09/26 10:32:23;;;;;;;;;;;;;;;11.18;100.00;99863.09;5012158;28;20280;-42
2022/09/26 10:35:06;;;;;;;;;;;;;;;11.25;100.00;99868.50;4999551;28;19987;-42
2022/09/26 10:37:35;;;;;;;;;;;;;;;11.29;100.00;99864.44;4997334;28;19937;-43
2022/09/26 10:42:46;;;;;;;;;;;;;;;11.20;100.00;99851.22;5007765;28;19924;-42
2022/09/26 10:45:16;;;;;;;;;;;;;;;11.08;100.00;99842.00;5008975;28;19922;-44
2022/09/26 10:47:45;;;;;;;;;;;;;;;11.06;100.00;99845.91;4997290;28;20179;-42
2022/09/26 10:50:15;;;;;;;;;;;;;;;11.00;100.00;99840.31;4999035;28;20464;-42
2022/09/26 10:52:52;;;;;;;;;;;;;;;10.96;100.00;99843.53;5010165;28;19928;-42
2022/09/26 10:55:24;;;;;;;;;;;;;;;10.94;100.00;99846.38;5005421;28;20039;-42
2022/09/26 10:58:04;;;;;;;;;;;;;;;10.90;100.00;99838.97;4996266;28;19914;-43
2022/09/26 11:00:34;;;;;;;;;;;;;;;10.86;100.00;99840.31;4997980;28;20085;-43
2022/09/26 11:03:02;;;;;;;;;;;;;;;10.79;100.00;99835.75;4998735;28;20118;-43
2022/09/26 11:08:12;;;;;;;;;;;;;;;10.72;100.00;99831.34;4997929;28;19982;-42
2022/09/26 11:10:40;;;;;;;;;;;;;;;10.69;100.00;99843.19;4998759;28;19922;-40
2022/09/26 11:13:15;;;;;;;;;;;;;;;10.67;100.00;99839.09;5004042;28;19916;-41
2022/09/26 11:15:41;;;;;;;;;;;;;;;10.63;100.00;99831.44;5014256;28;20184;-41
2022/09/26 11:18:18;;;;;;;;;;;;;;;10.68;100.00;99838.91;4999506;28;19933;-42
2022/09/26 11:20:49;;;;;;;;;;;;;;;10.69;100.00;99826.38;4998223;28;19918;-42
2022/09/26 11:23:26;;;;;;;;;;;;;;;10.69;100.00;99837.88;5011071;28;19917;-45
2022/09/26 11:26:18;;;;;;;;;;;;;;;10.68;100.00;99828.22;5016275;28;20047;-42
2022/09/26 11:29:02;;;;;;;;;;;;;;;10.66;100.00;99822.25;5005852;28;20086;-42
2022/09/26 11:31:34;;;;;;;;;;;;;;;10.57;100.00;99836.69;5016673;28;20615;-41
2022/09/26 11:34:02;;;;;;;;;;;;;;;10.62;100.00;99828.94;5017473;28;19928;-41
2022/09/26 11:36:37;;;;;;;;;;;;;;;10.60;100.00;99823.78;5013204;28;20452;-42
2022/09/26 11:39:12;;;;;;;;;;;;;;;10.64;100.00;99830.44;5018299;28;20360;-43
2022/09/26 11:41:56;;;;;;;;;;;;;;;10.65;100.00;99820.56;5016432;28;19913;-42
2022/09/26 11:44:31;;;;;;;;;;;;;;;10.67;100.00;99810.53;5017818;28;20394;-42
2022/09/26 11:47:14;;;;;;;;;;;;;;;10.72;100.00;99793.94;5015300;28;19924;-40
2022/09/26 11:50:12;;;;;;;;;;;;;;;10.69;100.00;99810.34;5018112;28;20062;-42
2022/09/26 11:53:00;;;;;;;;;;;;;;;10.70;100.00;99823.50;5014815;28;19913;-40
2022/09/26 11:55:37;;;;;;;;;;;;;;;10.71;100.00;99802.97;5017015;28;19963;-40
2022/09/26 11:58:08;;;;;;;;;;;;;;;10.72;100.00;99796.63;5013483;28;19929;-41
2022/09/26 12:00:39;;;;;;;;;;;;;;;10.73;100.00;99806.31;5016720;28;19913;-40
2022/09/26 12:03:05;;;;;;;;;;;;;;;10.72;100.00;99800.09;5016926;28;20404;-40
2022/09/26 12:05:38;;;;;;;;;;;;;;;10.73;100.00;99796.44;5018020;28;19917;-41
2022/09/26 12:08:19;;;;;;;;;;;;;;;10.75;100.00;99799.75;5017568;28;19917;-41
2022/09/26 12:11:04;;;;;;;;;;;;;;;10.78;100.00;99799.38;5016545;28;19913;-41
2022/09/26 12:13:41;;;;;;;;;;;;;;;10.77;100.00;99783.53;5017641;28;20002;-41
2022/09/26 12:16:11;;;;;;;;;;;;;;;10.80;100.00;99794.66;5016071;28;20277;-39
2022/09/26 12:18:42;;;;;;;;;;;;;;;10.81;100.00;99784.78;5017964;28;19924;-39
2022/09/26 12:21:08;;;;;;;;;;;;;;;10.80;100.00;99780.50;5015844;28;19946;-39
2022/09/26 12:23:51;;;;;;;;;;;;;;;10.85;100.00;99782.59;5017591;28;19917;-42
2022/09/26 12:26:35;;;;;;;;;;;;;;;10.76;100.00;99782.72;5012479;28;20011;-41
2022/09/26 12:29:11;;;;;;;;;;;;;;;10.80;100.00;99773.28;5017562;28;19944;-40
2022/09/26 12:31:47;;;;;;;;;;;;;;;10.87;100.00;99775.22;5014055;28;19979;-40
2022/09/26 12:34:31;;;;;;;;;;;;;;;10.85;100.00;99774.59;5008586;28;20327;-41
2022/09/26 12:37:04;;;;;;;;;;;;;;;10.88;100.00;99768.84;5016667;28;19944;-42
2022/09/26 12:39:32;;;;;;;;;;;;;;;10.88;100.00;99763.50;5032638;28;19917;-42
2022/09/26 12:42:24;;;;;;;;;;;;;;;10.89;100.00;99773.19;5014710;28;19990;-41
2022/09/26 12:44:56;;;;;;;;;;;;;;;10.86;100.00;99758.34;5003643;28;20015;-40
2022/09/26 12:47:27;;;;;;;;;;;;;;;10.87;100.00;99748.50;5003595;28;20302;-41
2022/09/26 12:49:57;;;;;;;;;;;;;;;10.85;100.00;99743.34;5016537;28;19920;-40
2022/09/26 12:52:49;;;;;;;;;;;;;;;10.83;100.00;99746.22;5014902;28;19909;-40
2022/09/26 12:55:28;;;;;;;;;;;;;;;10.80;100.00;99735.09;5016218;28;20052;-40
2022/09/26 12:58:08;;;;;;;;;;;;;;;10.82;100.00;99739.19;5014960;28;19956;-41
2022/09/26 13:00:39;;;;;;;;;;;;;;;10.81;100.00;99747.41;5016310;28;19979;-44